Terminal Aerodrome Forecast
Issued by NWS Charleston, WV

Current Version | Previous Version | Graphics & Text | Print | Product List | Glossary On
Versions: 1 2 3 4 5 6 7 8 9 10 11 12 13 14 15 16 17 18 19 20 21 22 23 24 25 26 27 28 29 30 31 32
000
FTUS41 KRLX 241800 AAA
TAFBKW
TAF AMD
KBKW 241815Z 2418/2518 30010KT P6SM BKN040
     FM242200 33006KT P6SM BKN040
     FM250100 04004KT P6SM BKN050
     FM250200 10005KT P6SM BKN040
     FM250500 14009KT P6SM BKN015
     FM250600 14010G15KT P6SM BKN010
     FM251300 15010G15KT P6SM BKN015
     FM251600 16011G19KT P6SM BKN025=

USA.gov is the U.S. government's official web portal to all federal, state and local government web resources and services.